sensor_id;sensor_type;location;lat;lon;timestamp;P1;durP1;ratioP1;P2;durP2;ratioP2
78489;SDS011;67776;52.012;4.736;2023-04-24T00:01:10;14.17;;;6.50;;
78489;SDS011;67776;52.012;4.736;2023-04-24T00:03:37;12.00;;;6.03;;
78489;SDS011;67776;52.012;4.736;2023-04-24T00:06:03;12.38;;;6.13;;
78489;SDS011;67776;52.012;4.736;2023-04-24T00:08:30;11.75;;;5.43;;
78489;SDS011;67776;52.012;4.736;2023-04-24T00:10:55;10.27;;;4.93;;
78489;SDS011;67776;52.012;4.736;2023-04-24T00:13:20;12.83;;;5.73;;
78489;SDS011;67776;52.012;4.736;2023-04-24T00:15:46;14.30;;;5.50;;
78489;SDS011;67776;52.012;4.736;2023-04-24T00:18:12;12.30;;;5.85;;
78489;SDS011;67776;52.012;4.736;2023-04-24T00:20:37;13.53;;;6.40;;
78489;SDS011;67776;52.012;4.736;2023-04-24T00:23:02;10.37;;;5.33;;
78489;SDS011;67776;52.012;4.736;2023-04-24T00:25:28;13.60;;;6.35;;
78489;SDS011;67776;52.012;4.736;2023-04-24T00:27:53;12.70;;;6.23;;
78489;SDS011;67776;52.012;4.736;2023-04-24T00:30:18;13.27;;;6.37;;
78489;SDS011;67776;52.012;4.736;2023-04-24T00:32:44;12.13;;;6.23;;
78489;SDS011;67776;52.012;4.736;2023-04-24T00:35:09;12.53;;;5.80;;
78489;SDS011;67776;52.012;4.736;2023-04-24T00:37:35;10.68;;;5.43;;
78489;SDS011;67776;52.012;4.736;2023-04-24T00:40:00;16.30;;;6.10;;
78489;SDS011;67776;52.012;4.736;2023-04-24T00:42:26;10.00;;;4.37;;
78489;SDS011;67776;52.012;4.736;2023-04-24T00:44:52;11.45;;;4.60;;
78489;SDS011;67776;52.012;4.736;2023-04-24T00:47:18;10.38;;;4.68;;
78489;SDS011;67776;52.012;4.736;2023-04-24T00:49:44;9.97;;;4.00;;
78489;SDS011;67776;52.012;4.736;2023-04-24T00:52:09;12.87;;;4.57;;
78489;SDS011;67776;52.012;4.736;2023-04-24T00:54:35;10.70;;;3.97;;
78489;SDS011;67776;52.012;4.736;2023-04-24T00:57:02;10.55;;;4.20;;
78489;SDS011;67776;52.012;4.736;2023-04-24T00:59:28;10.03;;;4.37;;
78489;SDS011;67776;52.012;4.736;2023-04-24T01:01:53;9.15;;;3.40;;
78489;SDS011;67776;52.012;4.736;2023-04-24T01:04:20;8.27;;;4.10;;
78489;SDS011;67776;52.012;4.736;2023-04-24T01:06:46;10.05;;;4.35;;
78489;SDS011;67776;52.012;4.736;2023-04-24T01:09:13;10.15;;;4.70;;
78489;SDS011;67776;52.012;4.736;2023-04-24T01:11:40;11.55;;;5.13;;
78489;SDS011;67776;52.012;4.736;2023-04-24T01:14:06;10.17;;;4.20;;
78489;SDS011;67776;52.012;4.736;2023-04-24T01:16:32;14.52;;;5.10;;
78489;SDS011;67776;52.012;4.736;2023-04-24T01:18:58;12.60;;;4.43;;
78489;SDS011;67776;52.012;4.736;2023-04-24T01:21:23;11.20;;;4.50;;
78489;SDS011;67776;52.012;4.736;2023-04-24T01:23:54;12.57;;;5.17;;
78489;SDS011;67776;52.012;4.736;2023-04-24T01:26:21;10.55;;;4.93;;
78489;SDS011;67776;52.012;4.736;2023-04-24T01:28:47;11.63;;;5.13;;
78489;SDS011;67776;52.012;4.736;2023-04-24T01:31:12;11.57;;;4.72;;
78489;SDS011;67776;52.012;4.736;2023-04-24T01:33:40;11.63;;;4.93;;
78489;SDS011;67776;52.012;4.736;2023-04-24T01:36:06;11.13;;;5.37;;
78489;SDS011;67776;52.012;4.736;2023-04-24T01:38:33;14.00;;;5.85;;
78489;SDS011;67776;52.012;4.736;2023-04-24T01:40:58;15.77;;;6.03;;
78489;SDS011;67776;52.012;4.736;2023-04-24T01:43:24;15.15;;;4.93;;
78489;SDS011;67776;52.012;4.736;2023-04-24T01:45:50;10.57;;;4.50;;
78489;SDS011;67776;52.012;4.736;2023-04-24T01:48:15;11.67;;;4.63;;
78489;SDS011;67776;52.012;4.736;2023-04-24T01:50:40;14.93;;;5.10;;
78489;SDS011;67776;52.012;4.736;2023-04-24T01:53:06;14.43;;;5.20;;
78489;SDS011;67776;52.012;4.736;2023-04-24T01:55:31;12.23;;;4.93;;
78489;SDS011;67776;52.012;4.736;2023-04-24T01:57:57;14.47;;;5.57;;
78489;SDS011;67776;52.012;4.736;2023-04-24T02:00:24;13.18;;;5.50;;
78489;SDS011;67776;52.012;4.736;2023-04-24T02:02:49;12.47;;;4.90;;
78489;SDS011;67776;52.012;4.736;2023-04-24T02:05:15;19.95;;;6.05;;
78489;SDS011;67776;52.012;4.736;2023-04-24T02:07:40;12.87;;;5.27;;
78489;SDS011;67776;52.012;4.736;2023-04-24T02:10:06;12.87;;;4.83;;
78489;SDS011;67776;52.012;4.736;2023-04-24T02:12:31;12.23;;;4.90;;
78489;SDS011;67776;52.012;4.736;2023-04-24T02:14:57;12.60;;;4.93;;
78489;SDS011;67776;52.012;4.736;2023-04-24T02:17:22;12.07;;;4.67;;
78489;SDS011;67776;52.012;4.736;2023-04-24T02:19:48;10.47;;;4.20;;
78489;SDS011;67776;52.012;4.736;2023-04-24T02:22:13;10.37;;;4.00;;
78489;SDS011;67776;52.012;4.736;2023-04-24T02:24:38;11.88;;;4.32;;
78489;SDS011;67776;52.012;4.736;2023-04-24T02:27:04;9.93;;;3.70;;
78489;SDS011;67776;52.012;4.736;2023-04-24T02:29:30;11.60;;;4.00;;
78489;SDS011;67776;52.012;4.736;2023-04-24T02:31:55;11.27;;;4.53;;
78489;SDS011;67776;52.012;4.736;2023-04-24T02:34:20;10.37;;;3.93;;
78489;SDS011;67776;52.012;4.736;2023-04-24T02:36:46;10.07;;;3.90;;
78489;SDS011;67776;52.012;4.736;2023-04-24T02:39:11;10.77;;;3.93;;
78489;SDS011;67776;52.012;4.736;2023-04-24T02:41:38;8.73;;;3.30;;
78489;SDS011;67776;52.012;4.736;2023-04-24T02:44:03;9.60;;;3.30;;
78489;SDS011;67776;52.012;4.736;2023-04-24T02:46:28;9.33;;;3.90;;
78489;SDS011;67776;52.012;4.736;2023-04-24T02:48:54;10.93;;;3.40;;
78489;SDS011;67776;52.012;4.736;2023-04-24T02:51:19;9.15;;;3.60;;
78489;SDS011;67776;52.012;4.736;2023-04-24T02:53:45;8.70;;;3.00;;
78489;SDS011;67776;52.012;4.736;2023-04-24T02:56:10;9.50;;;3.40;;
78489;SDS011;67776;52.012;4.736;2023-04-24T02:58:37;11.13;;;3.20;;
78489;SDS011;67776;52.012;4.736;2023-04-24T03:01:02;8.83;;;3.53;;
78489;SDS011;67776;52.012;4.736;2023-04-24T03:03:28;9.93;;;3.30;;
78489;SDS011;67776;52.012;4.736;2023-04-24T03:05:53;8.93;;;3.42;;
78489;SDS011;67776;52.012;4.736;2023-04-24T03:08:20;10.03;;;3.77;;
78489;SDS011;67776;52.012;4.736;2023-04-24T03:10:45;10.67;;;4.00;;
78489;SDS011;67776;52.012;4.736;2023-04-24T03:13:10;11.67;;;3.77;;
78489;SDS011;67776;52.012;4.736;2023-04-24T03:15:36;9.67;;;3.70;;
78489;SDS011;67776;52.012;4.736;2023-04-24T03:18:01;8.13;;;2.97;;
78489;SDS011;67776;52.012;4.736;2023-04-24T03:20:27;9.15;;;2.10;;
78489;SDS011;67776;52.012;4.736;2023-04-24T03:22:53;5.87;;;1.47;;
78489;SDS011;67776;52.012;4.736;2023-04-24T03:25:18;5.43;;;1.10;;
78489;SDS011;67776;52.012;4.736;2023-04-24T03:27:44;3.95;;;1.05;;
78489;SDS011;67776;52.012;4.736;2023-04-24T03:30:09;4.30;;;1.00;;
78489;SDS011;67776;52.012;4.736;2023-04-24T03:32:35;3.43;;;1.00;;
78489;SDS011;67776;52.012;4.736;2023-04-24T03:35:00;2.53;;;0.70;;
78489;SDS011;67776;52.012;4.736;2023-04-24T03:37:27;3.83;;;0.80;;
78489;SDS011;67776;52.012;4.736;2023-04-24T03:39:52;2.42;;;0.70;;
78489;SDS011;67776;52.012;4.736;2023-04-24T03:42:17;4.37;;;0.80;;
78489;SDS011;67776;52.012;4.736;2023-04-24T03:44:43;5.53;;;1.00;;
78489;SDS011;67776;52.012;4.736;2023-04-24T03:47:08;4.10;;;0.97;;
78489;SDS011;67776;52.012;4.736;2023-04-24T03:49:34;3.53;;;1.00;;
78489;SDS011;67776;52.012;4.736;2023-04-24T03:51:59;5.93;;;1.23;;
78489;SDS011;67776;52.012;4.736;2023-04-24T03:54:24;7.73;;;1.30;;
78489;SDS011;67776;52.012;4.736;2023-04-24T03:56:50;3.67;;;0.90;;
78489;SDS011;67776;52.012;4.736;2023-04-24T03:59:15;5.28;;;0.93;;
78489;SDS011;67776;52.012;4.736;2023-04-24T04:01:41;2.90;;;0.70;;
78489;SDS011;67776;52.012;4.736;2023-04-24T04:04:06;3.10;;;1.27;;
78489;SDS011;67776;52.012;4.736;2023-04-24T04:06:32;3.25;;;0.90;;
78489;SDS011;67776;52.012;4.736;2023-04-24T04:08:58;1.93;;;0.63;;
78489;SDS011;67776;52.012;4.736;2023-04-24T04:11:24;3.47;;;1.00;;
78489;SDS011;67776;52.012;4.736;2023-04-24T04:13:49;3.57;;;1.10;;
78489;SDS011;67776;52.012;4.736;2023-04-24T04:16:15;3.70;;;0.90;;
78489;SDS011;67776;52.012;4.736;2023-04-24T04:18:43;3.92;;;1.10;;
78489;SDS011;67776;52.012;4.736;2023-04-24T04:21:09;6.80;;;1.10;;
78489;SDS011;67776;52.012;4.736;2023-04-24T04:23:35;6.27;;;1.53;;
78489;SDS011;67776;52.012;4.736;2023-04-24T04:26:00;8.90;;;1.20;;
78489;SDS011;67776;52.012;4.736;2023-04-24T04:28:26;3.45;;;1.00;;
78489;SDS011;67776;52.012;4.736;2023-04-24T04:30:52;4.53;;;1.13;;
78489;SDS011;67776;52.012;4.736;2023-04-24T04:33:20;3.55;;;1.00;;
78489;SDS011;67776;52.012;4.736;2023-04-24T04:35:46;7.25;;;1.10;;
78489;SDS011;67776;52.012;4.736;2023-04-24T04:38:15;2.88;;;0.98;;
78489;SDS011;67776;52.012;4.736;2023-04-24T04:40:41;3.30;;;1.00;;
78489;SDS011;67776;52.012;4.736;2023-04-24T04:43:07;5.03;;;1.30;;
78489;SDS011;67776;52.012;4.736;2023-04-24T04:45:33;3.08;;;0.95;;
78489;SDS011;67776;52.012;4.736;2023-04-24T04:47:59;5.63;;;1.30;;
78489;SDS011;67776;52.012;4.736;2023-04-24T04:50:28;6.50;;;1.50;;
78489;SDS011;67776;52.012;4.736;2023-04-24T04:52:54;4.78;;;1.40;;
78489;SDS011;67776;52.012;4.736;2023-04-24T04:55:19;5.70;;;1.50;;
78489;SDS011;67776;52.012;4.736;2023-04-24T04:57:45;6.87;;;1.50;;
78489;SDS011;67776;52.012;4.736;2023-04-24T05:00:11;4.70;;;1.52;;
78489;SDS011;67776;52.012;4.736;2023-04-24T05:02:37;5.18;;;1.67;;
78489;SDS011;67776;52.012;4.736;2023-04-24T05:05:02;4.80;;;1.67;;
78489;SDS011;67776;52.012;4.736;2023-04-24T05:07:28;6.93;;;1.92;;
78489;SDS011;67776;52.012;4.736;2023-04-24T05:09:53;7.70;;;2.50;;
78489;SDS011;67776;52.012;4.736;2023-04-24T05:12:18;10.40;;;3.33;;
78489;SDS011;67776;52.012;4.736;2023-04-24T05:14:44;13.17;;;4.60;;
78489;SDS011;67776;52.012;4.736;2023-04-24T05:17:09;10.43;;;4.53;;
78489;SDS011;67776;52.012;4.736;2023-04-24T05:19:34;14.27;;;5.00;;
78489;SDS011;67776;52.012;4.736;2023-04-24T05:22:02;16.02;;;4.97;;
78489;SDS011;67776;52.012;4.736;2023-04-24T05:24:29;10.98;;;4.60;;
78489;SDS011;67776;52.012;4.736;2023-04-24T05:26:54;12.93;;;4.90;;
78489;SDS011;67776;52.012;4.736;2023-04-24T05:29:20;12.80;;;4.80;;
78489;SDS011;67776;52.012;4.736;2023-04-24T05:31:46;12.85;;;5.53;;
78489;SDS011;67776;52.012;4.736;2023-04-24T05:34:11;14.23;;;6.70;;
78489;SDS011;67776;52.012;4.736;2023-04-24T05:36:37;18.43;;;7.80;;
78489;SDS011;67776;52.012;4.736;2023-04-24T05:39:02;24.00;;;8.83;;
78489;SDS011;67776;52.012;4.736;2023-04-24T05:41:29;22.65;;;8.95;;
78489;SDS011;67776;52.012;4.736;2023-04-24T05:43:55;23.13;;;10.03;;
78489;SDS011;67776;52.012;4.736;2023-04-24T05:46:20;19.20;;;9.60;;
78489;SDS011;67776;52.012;4.736;2023-04-24T05:48:45;23.30;;;11.33;;
78489;SDS011;67776;52.012;4.736;2023-04-24T05:51:11;25.87;;;11.93;;
78489;SDS011;67776;52.012;4.736;2023-04-24T05:53:36;28.48;;;11.50;;
78489;SDS011;67776;52.012;4.736;2023-04-24T05:56:02;24.87;;;12.27;;
78489;SDS011;67776;52.012;4.736;2023-04-24T05:58:27;29.47;;;12.57;;
78489;SDS011;67776;52.012;4.736;2023-04-24T06:00:52;28.07;;;12.20;;
78489;SDS011;67776;52.012;4.736;2023-04-24T06:03:18;22.10;;;10.10;;
78489;SDS011;67776;52.012;4.736;2023-04-24T06:05:43;25.80;;;10.98;;
78489;SDS011;67776;52.012;4.736;2023-04-24T06:08:09;29.67;;;11.40;;
78489;SDS011;67776;52.012;4.736;2023-04-24T06:10:34;22.87;;;10.80;;
78489;SDS011;67776;52.012;4.736;2023-04-24T06:13:00;28.30;;;11.00;;
78489;SDS011;67776;52.012;4.736;2023-04-24T06:15:27;25.60;;;10.93;;
78489;SDS011;67776;52.012;4.736;2023-04-24T06:17:53;24.48;;;10.52;;
78489;SDS011;67776;52.012;4.736;2023-04-24T06:20:19;28.53;;;10.63;;
78489;SDS011;67776;52.012;4.736;2023-04-24T06:22:44;29.53;;;10.63;;
78489;SDS011;67776;52.012;4.736;2023-04-24T06:25:09;24.60;;;9.73;;
78489;SDS011;67776;52.012;4.736;2023-04-24T06:27:35;28.90;;;10.10;;
78489;SDS011;67776;52.012;4.736;2023-04-24T06:30:00;22.83;;;9.33;;
78489;SDS011;67776;52.012;4.736;2023-04-24T06:32:26;25.77;;;9.93;;
78489;SDS011;67776;52.012;4.736;2023-04-24T06:34:52;22.17;;;7.63;;
78489;SDS011;67776;52.012;4.736;2023-04-24T06:37:18;23.97;;;8.40;;
78489;SDS011;67776;52.012;4.736;2023-04-24T06:39:44;30.85;;;9.02;;
78489;SDS011;67776;52.012;4.736;2023-04-24T06:42:09;29.23;;;7.97;;
78489;SDS011;67776;52.012;4.736;2023-04-24T06:44:35;24.40;;;8.18;;
78489;SDS011;67776;52.012;4.736;2023-04-24T06:47:05;26.00;;;7.50;;
78489;SDS011;67776;52.012;4.736;2023-04-24T06:49:34;21.33;;;6.80;;
78489;SDS011;67776;52.012;4.736;2023-04-24T06:52:00;24.17;;;7.53;;
78489;SDS011;67776;52.012;4.736;2023-04-24T06:54:26;23.47;;;7.10;;
78489;SDS011;67776;52.012;4.736;2023-04-24T06:56:51;26.20;;;7.47;;
78489;SDS011;67776;52.012;4.736;2023-04-24T06:59:17;24.13;;;6.90;;
78489;SDS011;67776;52.012;4.736;2023-04-24T07:01:42;21.40;;;6.67;;
78489;SDS011;67776;52.012;4.736;2023-04-24T07:04:08;27.70;;;6.60;;
78489;SDS011;67776;52.012;4.736;2023-04-24T07:06:33;26.02;;;7.70;;
78489;SDS011;67776;52.012;4.736;2023-04-24T07:09:00;25.37;;;6.70;;
78489;SDS011;67776;52.012;4.736;2023-04-24T07:11:26;20.65;;;5.88;;
78489;SDS011;67776;52.012;4.736;2023-04-24T07:13:54;21.40;;;5.10;;
78489;SDS011;67776;52.012;4.736;2023-04-24T07:16:19;17.83;;;6.13;;
78489;SDS011;67776;52.012;4.736;2023-04-24T07:18:45;14.47;;;4.43;;
78489;SDS011;67776;52.012;4.736;2023-04-24T07:21:10;19.93;;;4.60;;
78489;SDS011;67776;52.012;4.736;2023-04-24T07:23:36;20.02;;;4.13;;
78489;SDS011;67776;52.012;4.736;2023-04-24T07:26:01;14.77;;;4.20;;
78489;SDS011;67776;52.012;4.736;2023-04-24T07:28:27;18.48;;;4.22;;
78489;SDS011;67776;52.012;4.736;2023-04-24T07:30:55;17.13;;;4.37;;
78489;SDS011;67776;52.012;4.736;2023-04-24T07:33:21;13.63;;;4.18;;
78489;SDS011;67776;52.012;4.736;2023-04-24T07:35:46;19.40;;;3.43;;
78489;SDS011;67776;52.012;4.736;2023-04-24T07:38:12;19.17;;;4.03;;
78489;SDS011;67776;52.012;4.736;2023-04-24T07:40:37;13.43;;;3.15;;
78489;SDS011;67776;52.012;4.736;2023-04-24T07:43:03;19.03;;;3.50;;
78489;SDS011;67776;52.012;4.736;2023-04-24T07:45:28;21.67;;;3.50;;
78489;SDS011;67776;52.012;4.736;2023-04-24T07:47:53;17.13;;;3.43;;
78489;SDS011;67776;52.012;4.736;2023-04-24T07:50:19;14.57;;;3.17;;
78489;SDS011;67776;52.012;4.736;2023-04-24T07:52:45;16.73;;;3.20;;
78489;SDS011;67776;52.012;4.736;2023-04-24T07:55:10;17.77;;;3.70;;
78489;SDS011;67776;52.012;4.736;2023-04-24T07:57:35;15.93;;;3.30;;
78489;SDS011;67776;52.012;4.736;2023-04-24T08:00:02;14.83;;;3.33;;
78489;SDS011;67776;52.012;4.736;2023-04-24T08:02:28;13.95;;;2.47;;
78489;SDS011;67776;52.012;4.736;2023-04-24T08:04:54;16.27;;;3.37;;
78489;SDS011;67776;52.012;4.736;2023-04-24T08:07:19;15.55;;;2.78;;
78489;SDS011;67776;52.012;4.736;2023-04-24T08:09:45;14.40;;;3.03;;
78489;SDS011;67776;52.012;4.736;2023-04-24T08:12:10;9.47;;;2.60;;
78489;SDS011;67776;52.012;4.736;2023-04-24T08:14:36;16.00;;;3.47;;
78489;SDS011;67776;52.012;4.736;2023-04-24T08:17:01;14.87;;;3.83;;
78489;SDS011;67776;52.012;4.736;2023-04-24T08:19:27;13.68;;;2.58;;
78489;SDS011;67776;52.012;4.736;2023-04-24T08:21:52;10.67;;;2.80;;
78489;SDS011;67776;52.012;4.736;2023-04-24T08:24:18;14.40;;;2.57;;
78489;SDS011;67776;52.012;4.736;2023-04-24T08:26:43;13.70;;;2.67;;
78489;SDS011;67776;52.012;4.736;2023-04-24T08:29:09;14.20;;;3.10;;
78489;SDS011;67776;52.012;4.736;2023-04-24T08:31:34;17.10;;;3.03;;
78489;SDS011;67776;52.012;4.736;2023-04-24T08:34:00;17.33;;;3.00;;
78489;SDS011;67776;52.012;4.736;2023-04-24T08:36:25;13.00;;;2.80;;
78489;SDS011;67776;52.012;4.736;2023-04-24T08:38:51;8.40;;;2.20;;
78489;SDS011;67776;52.012;4.736;2023-04-24T08:41:18;16.55;;;2.60;;
78489;SDS011;67776;52.012;4.736;2023-04-24T08:43:44;13.38;;;2.63;;
78489;SDS011;67776;52.012;4.736;2023-04-24T08:46:11;10.98;;;2.47;;
78489;SDS011;67776;52.012;4.736;2023-04-24T08:48:38;11.98;;;2.45;;
78489;SDS011;67776;52.012;4.736;2023-04-24T08:51:04;7.67;;;1.97;;
78489;SDS011;67776;52.012;4.736;2023-04-24T08:53:32;9.52;;;2.30;;
78489;SDS011;67776;52.012;4.736;2023-04-24T08:55:58;8.37;;;2.10;;
78489;SDS011;67776;52.012;4.736;2023-04-24T08:58:26;8.32;;;2.08;;
78489;SDS011;67776;52.012;4.736;2023-04-24T09:00:56;8.27;;;1.88;;
78489;SDS011;67776;52.012;4.736;2023-04-24T09:03:22;7.80;;;1.97;;
78489;SDS011;67776;52.012;4.736;2023-04-24T09:05:48;6.72;;;1.70;;
78489;SDS011;67776;52.012;4.736;2023-04-24T09:08:16;10.38;;;2.15;;
78489;SDS011;67776;52.012;4.736;2023-04-24T09:10:43;13.65;;;2.05;;
78489;SDS011;67776;52.012;4.736;2023-04-24T09:13:08;15.13;;;2.47;;
78489;SDS011;67776;52.012;4.736;2023-04-24T09:15:35;10.48;;;2.40;;
78489;SDS011;67776;52.012;4.736;2023-04-24T09:18:00;9.07;;;1.77;;
78489;SDS011;67776;52.012;4.736;2023-04-24T09:20:32;8.60;;;1.85;;
78489;SDS011;67776;52.012;4.736;2023-04-24T09:22:58;11.88;;;2.38;;
78489;SDS011;67776;52.012;4.736;2023-04-24T09:25:33;7.47;;;1.70;;
78489;SDS011;67776;52.012;4.736;2023-04-24T09:28:04;8.27;;;1.30;;
78489;SDS011;67776;52.012;4.736;2023-04-24T09:30:31;8.15;;;1.67;;
78489;SDS011;67776;52.012;4.736;2023-04-24T09:33:09;9.07;;;1.57;;
78489;SDS011;67776;52.012;4.736;2023-04-24T09:35:42;7.97;;;1.38;;
78489;SDS011;67776;52.012;4.736;2023-04-24T09:38:14;4.70;;;1.20;;
78489;SDS011;67776;52.012;4.736;2023-04-24T09:40:40;6.10;;;1.30;;
78489;SDS011;67776;52.012;4.736;2023-04-24T09:43:09;4.07;;;1.38;;
78489;SDS011;67776;52.012;4.736;2023-04-24T09:45:36;7.20;;;1.40;;
78489;SDS011;67776;52.012;4.736;2023-04-24T09:48:02;10.88;;;1.30;;
78489;SDS011;67776;52.012;4.736;2023-04-24T09:50:29;6.00;;;1.35;;
78489;SDS011;67776;52.012;4.736;2023-04-24T09:53:03;5.32;;;0.93;;
78489;SDS011;67776;52.012;4.736;2023-04-24T09:55:30;7.40;;;1.40;;
78489;SDS011;67776;52.012;4.736;2023-04-24T09:57:57;3.90;;;1.17;;
78489;SDS011;67776;52.012;4.736;2023-04-24T10:00:25;4.60;;;1.08;;
78489;SDS011;67776;52.012;4.736;2023-04-24T10:02:56;4.60;;;1.10;;
78489;SDS011;67776;52.012;4.736;2023-04-24T10:05:29;4.83;;;1.07;;
78489;SDS011;67776;52.012;4.736;2023-04-24T10:08:10;5.18;;;1.17;;
78489;SDS011;67776;52.012;4.736;2023-04-24T10:10:41;6.20;;;1.08;;
78489;SDS011;67776;52.012;4.736;2023-04-24T10:13:11;4.80;;;1.20;;
78489;SDS011;67776;52.012;4.736;2023-04-24T10:15:38;4.85;;;1.20;;
78489;SDS011;67776;52.012;4.736;2023-04-24T10:18:04;3.53;;;0.90;;
78489;SDS011;67776;52.012;4.736;2023-04-24T10:20:31;4.90;;;1.20;;
78489;SDS011;67776;52.012;4.736;2023-04-24T10:22:57;4.07;;;1.00;;
78489;SDS011;67776;52.012;4.736;2023-04-24T10:25:24;6.55;;;1.10;;
78489;SDS011;67776;52.012;4.736;2023-04-24T10:27:52;3.97;;;0.90;;
78489;SDS011;67776;52.012;4.736;2023-04-24T10:30:22;4.57;;;0.80;;
78489;SDS011;67776;52.012;4.736;2023-04-24T10:32:47;3.25;;;0.90;;
78489;SDS011;67776;52.012;4.736;2023-04-24T10:35:13;5.50;;;1.30;;
78489;SDS011;67776;52.012;4.736;2023-04-24T10:37:44;5.63;;;1.10;;
78489;SDS011;67776;52.012;4.736;2023-04-24T10:40:11;5.25;;;1.08;;
78489;SDS011;67776;52.012;4.736;2023-04-24T10:42:46;4.65;;;0.98;;
78489;SDS011;67776;52.012;4.736;2023-04-24T10:45:21;2.28;;;0.60;;
78489;SDS011;67776;52.012;4.736;2023-04-24T10:47:52;4.22;;;0.98;;
78489;SDS011;67776;52.012;4.736;2023-04-24T10:50:25;5.70;;;0.83;;
78489;SDS011;67776;52.012;4.736;2023-04-24T10:52:52;5.13;;;1.35;;
78489;SDS011;67776;52.012;4.736;2023-04-24T10:58:08;6.95;;;1.08;;
78489;SDS011;67776;52.012;4.736;2023-04-24T11:00:36;5.30;;;1.30;;
78489;SDS011;67776;52.012;4.736;2023-04-24T11:03:04;7.28;;;1.55;;
78489;SDS011;67776;52.012;4.736;2023-04-24T11:08:23;7.38;;;1.35;;
78489;SDS011;67776;52.012;4.736;2023-04-24T11:10:54;6.47;;;1.52;;
78489;SDS011;67776;52.012;4.736;2023-04-24T11:13:24;6.73;;;1.47;;
78489;SDS011;67776;52.012;4.736;2023-04-24T11:24:21;9.10;;;1.23;;
78489;SDS011;67776;52.012;4.736;2023-04-24T11:26:48;5.40;;;1.10;;
78489;SDS011;67776;52.012;4.736;2023-04-24T11:29:13;8.48;;;1.33;;
78489;SDS011;67776;52.012;4.736;2023-04-24T11:31:39;7.27;;;1.30;;
78489;SDS011;67776;52.012;4.736;2023-04-24T11:34:13;7.25;;;1.20;;
78489;SDS011;67776;52.012;4.736;2023-04-24T11:36:39;4.00;;;0.90;;
78489;SDS011;67776;52.012;4.736;2023-04-24T11:39:07;4.55;;;1.10;;
78489;SDS011;67776;52.012;4.736;2023-04-24T11:41:33;7.93;;;1.30;;
78489;SDS011;67776;52.012;4.736;2023-04-24T11:43:59;5.35;;;1.30;;
78489;SDS011;67776;52.012;4.736;2023-04-24T11:46:27;4.45;;;1.13;;
78489;SDS011;67776;52.012;4.736;2023-04-24T11:48:53;4.88;;;1.10;;
78489;SDS011;67776;52.012;4.736;2023-04-24T11:51:19;7.13;;;1.20;;
78489;SDS011;67776;52.012;4.736;2023-04-24T11:53:44;6.53;;;1.20;;
78489;SDS011;67776;52.012;4.736;2023-04-24T11:56:10;5.78;;;1.30;;
78489;SDS011;67776;52.012;4.736;2023-04-24T11:58:35;5.47;;;1.50;;
78489;SDS011;67776;52.012;4.736;2023-04-24T12:01:03;6.00;;;1.20;;
78489;SDS011;67776;52.012;4.736;2023-04-24T12:03:32;7.40;;;1.50;;
78489;SDS011;67776;52.012;4.736;2023-04-24T12:06:10;8.83;;;1.73;;
78489;SDS011;67776;52.012;4.736;2023-04-24T12:08:37;8.55;;;1.95;;
78489;SDS011;67776;52.012;4.736;2023-04-24T12:11:03;8.25;;;2.08;;
78489;SDS011;67776;52.012;4.736;2023-04-24T12:13:32;8.70;;;1.70;;
78489;SDS011;67776;52.012;4.736;2023-04-24T12:15:58;11.07;;;1.77;;
78489;SDS011;67776;52.012;4.736;2023-04-24T12:18:23;10.20;;;2.03;;
78489;SDS011;67776;52.012;4.736;2023-04-24T12:20:49;7.23;;;1.70;;
78489;SDS011;67776;52.012;4.736;2023-04-24T12:23:15;9.07;;;2.28;;
78489;SDS011;67776;52.012;4.736;2023-04-24T12:25:40;9.03;;;2.03;;
78489;SDS011;67776;52.012;4.736;2023-04-24T12:30:32;8.47;;;1.90;;
78489;SDS011;67776;52.012;4.736;2023-04-24T12:32:58;11.02;;;2.67;;
78489;SDS011;67776;52.012;4.736;2023-04-24T12:35:26;7.53;;;1.70;;
78489;SDS011;67776;52.012;4.736;2023-04-24T12:37:52;9.02;;;2.50;;
78489;SDS011;67776;52.012;4.736;2023-04-24T12:40:18;10.03;;;2.00;;
78489;SDS011;67776;52.012;4.736;2023-04-24T12:42:45;9.32;;;2.25;;
78489;SDS011;67776;52.012;4.736;2023-04-24T12:45:12;10.40;;;2.22;;
78489;SDS011;67776;52.012;4.736;2023-04-24T12:47:39;11.20;;;2.27;;
78489;SDS011;67776;52.012;4.736;2023-04-24T12:50:05;13.40;;;2.45;;
78489;SDS011;67776;52.012;4.736;2023-04-24T12:52:32;11.15;;;2.13;;
78489;SDS011;67776;52.012;4.736;2023-04-24T12:54:58;15.83;;;2.07;;
78489;SDS011;67776;52.012;4.736;2023-04-24T12:57:26;11.43;;;2.20;;
78489;SDS011;67776;52.012;4.736;2023-04-24T12:59:56;11.32;;;2.38;;
78489;SDS011;67776;52.012;4.736;2023-04-24T13:02:22;8.70;;;2.07;;
78489;SDS011;67776;52.012;4.736;2023-04-24T13:04:49;11.07;;;2.60;;
78489;SDS011;67776;52.012;4.736;2023-04-24T13:07:15;8.90;;;2.30;;
78489;SDS011;67776;52.012;4.736;2023-04-24T13:09:44;8.95;;;2.20;;
78489;SDS011;67776;52.012;4.736;2023-04-24T13:12:10;12.52;;;2.85;;
78489;SDS011;67776;52.012;4.736;2023-04-24T13:14:36;10.47;;;2.17;;
78489;SDS011;67776;52.012;4.736;2023-04-24T13:17:02;11.27;;;2.03;;
78489;SDS011;67776;52.012;4.736;2023-04-24T13:19:28;16.02;;;3.08;;
78489;SDS011;67776;52.012;4.736;2023-04-24T13:21:54;10.00;;;3.03;;
78489;SDS011;67776;52.012;4.736;2023-04-24T13:24:21;12.27;;;2.72;;
78489;SDS011;67776;52.012;4.736;2023-04-24T13:26:49;14.88;;;3.10;;
78489;SDS011;67776;52.012;4.736;2023-04-24T13:29:16;9.52;;;2.35;;
78489;SDS011;67776;52.012;4.736;2023-04-24T13:31:41;10.10;;;2.50;;
78489;SDS011;67776;52.012;4.736;2023-04-24T13:34:07;10.65;;;2.30;;
78489;SDS011;67776;52.012;4.736;2023-04-24T13:36:32;7.50;;;2.17;;
78489;SDS011;67776;52.012;4.736;2023-04-24T13:38:58;12.27;;;2.43;;
78489;SDS011;67776;52.012;4.736;2023-04-24T13:41:23;10.23;;;2.33;;
78489;SDS011;67776;52.012;4.736;2023-04-24T13:43:49;7.97;;;2.47;;
78489;SDS011;67776;52.012;4.736;2023-04-24T13:46:14;12.93;;;2.40;;
78489;SDS011;67776;52.012;4.736;2023-04-24T13:48:39;13.43;;;3.03;;
78489;SDS011;67776;52.012;4.736;2023-04-24T13:51:05;9.80;;;2.50;;
78489;SDS011;67776;52.012;4.736;2023-04-24T13:53:30;10.13;;;2.10;;
78489;SDS011;67776;52.012;4.736;2023-04-24T13:55:55;6.30;;;2.10;;
78489;SDS011;67776;52.012;4.736;2023-04-24T13:58:21;8.93;;;2.10;;
78489;SDS011;67776;52.012;4.736;2023-04-24T14:00:46;10.32;;;2.88;;
78489;SDS011;67776;52.012;4.736;2023-04-24T14:03:11;7.03;;;1.70;;
78489;SDS011;67776;52.012;4.736;2023-04-24T14:05:37;8.03;;;2.17;;
78489;SDS011;67776;52.012;4.736;2023-04-24T14:08:02;10.53;;;2.37;;
78489;SDS011;67776;52.012;4.736;2023-04-24T14:10:27;7.00;;;2.10;;
78489;SDS011;67776;52.012;4.736;2023-04-24T14:12:53;9.53;;;2.70;;
78489;SDS011;67776;52.012;4.736;2023-04-24T14:15:18;13.50;;;3.30;;
78489;SDS011;67776;52.012;4.736;2023-04-24T14:17:44;9.63;;;2.60;;
78489;SDS011;67776;52.012;4.736;2023-04-24T14:20:09;7.80;;;2.40;;
78489;SDS011;67776;52.012;4.736;2023-04-24T14:22:35;10.57;;;2.42;;
78489;SDS011;67776;52.012;4.736;2023-04-24T14:25:00;8.63;;;2.83;;
78489;SDS011;67776;52.012;4.736;2023-04-24T14:27:26;14.00;;;2.97;;
78489;SDS011;67776;52.012;4.736;2023-04-24T14:29:51;9.02;;;2.75;;
78489;SDS011;67776;52.012;4.736;2023-04-24T14:32:17;11.53;;;3.10;;
78489;SDS011;67776;52.012;4.736;2023-04-24T14:34:42;12.73;;;3.60;;
78489;SDS011;67776;52.012;4.736;2023-04-24T14:37:08;15.03;;;4.10;;
78489;SDS011;67776;52.012;4.736;2023-04-24T14:39:33;8.32;;;2.67;;
78489;SDS011;67776;52.012;4.736;2023-04-24T14:42:00;13.30;;;3.30;;
78489;SDS011;67776;52.012;4.736;2023-04-24T14:44:26;9.27;;;3.10;;
78489;SDS011;67776;52.012;4.736;2023-04-24T14:46:51;14.20;;;3.83;;
78489;SDS011;67776;52.012;4.736;2023-04-24T14:49:17;13.87;;;3.30;;
78489;SDS011;67776;52.012;4.736;2023-04-24T14:51:42;16.27;;;4.23;;